This is the latest recevied weather packets stored in our database for station/object W1RCP. If no packets are shown the sender has not sent any weather packets the latest 1 day(s).
| Time | Temp. | Humidity | Pressure | Rain* | Wind** | Luminosity | Snow |
|---|---|---|---|---|---|---|---|
| 1778011687 | 28.89° C | 37% | 1025.5 hPa | 0 mm | 0.89 m/s, 244° | 700 W/m² | - |
| 1778011384 | 29.44° C | 36% | 1025.6 hPa | 0 mm | 1.34 m/s, 235° | 694 W/m² | - |
| 1778011079 | 28.89° C | 36% | 1025.7 hPa | 0 mm | 1.79 m/s, 215° | 717 W/m² | - |
| 1778010777 | 28.89° C | 37% | 1025.8 hPa | 0 mm | 0.89 m/s, 227° | 690 W/m² | - |
| 1778010473 | 28.89° C | 38% | 1026 hPa | 0 mm | 0.89 m/s, 225° | 672 W/m² | - |
| 1778010170 | 28.89° C | 36% | 1026.3 hPa | 0 mm | 1.79 m/s, 204° | 703 W/m² | - |
| 1778009866 | 28.89° C | 39% | 1026 hPa | 0 mm | 0.45 m/s, 176° | 747 W/m² | - |
| 1778009564 | 29.44° C | 35% | 1026.1 hPa | 0 mm | 1.34 m/s, 239° | 768 W/m² | - |
| 1778009262 | 28.89° C | 39% | 1026.1 hPa | 0 mm | 0 m/s | 759 W/m² | - |
| 1778008959 | 28.33° C | 38% | 1026.3 hPa | 0 mm | 0.45 m/s, 202° | 794 W/m² | - |
| 1778008657 | 28.89° C | 39% | 1026.4 hPa | 0 mm | 1.79 m/s, 201° | 804 W/m² | - |
| 1778008355 | 29.44° C | 39% | 1026.5 hPa | 0 mm | 0.89 m/s, 205° | 821 W/m² | - |
| 1778008051 | 28.33° C | 38% | 1026.4 hPa | 0 mm | 0.45 m/s, 215° | 861 W/m² | - |
| 1778007751 | 27.78° C | 39% | 1026.2 hPa | 0 mm | 0.89 m/s, 106° | 885 W/m² | - |
| 1778007448 | 28.33° C | 38% | 1026.5 hPa | 0 mm | 1.79 m/s, 270° | 219 W/m² | - |
| 1778007145 | 28.89° C | 37% | 1026.5 hPa | 0 mm | 0.89 m/s, 207° | 810 W/m² | - |
| 1778006840 | 28.33° C | 39% | 1026.4 hPa | 0 mm | 1.34 m/s, 130° | 790 W/m² | - |
| 1778006538 | 27.78° C | 38% | 1026.7 hPa | 0 mm | 1.34 m/s, 204° | 832 W/m² | - |
| 1778006235 | 27.78° C | 39% | 1026.6 hPa | 0 mm | 1.79 m/s, 238° | 840 W/m² | - |
| 1778005933 | 27.78° C | 39% | 1026.5 hPa | 0 mm | 2.24 m/s, 208° | 846 W/m² | - |
| 1778005628 | 28.33° C | 41% | 1026.7 hPa | 0 mm | 0.45 m/s, 205° | 633 W/m² | - |
| 1778005326 | 27.78° C | 39% | 1026.7 hPa | 0 mm | 0.89 m/s, 236° | 713 W/m² | - |
| 1778005022 | 28.33° C | 38% | 1026.7 hPa | 0 mm | 3.13 m/s, 228° | 859 W/m² | - |
| 1778004720 | 28.33° C | 39% | 1026.5 hPa | 0 mm | 0.89 m/s, 207° | 889 W/m² | - |
| 1778004415 | 27.78° C | 41% | 1026.6 hPa | 0 mm | 0.89 m/s, 145° | 848 W/m² | - |
* Rain latest hour (hover to see other rain measurements)
** Current wind speed in m/s (hover to see current wind gust speed)